createdAt,value
2019-01-25T00:00:41.665Z,30.90
2019-01-25T00:03:11.662Z,30.93
2019-01-25T00:05:39.765Z,30.40
2019-01-25T00:08:08.179Z,31.77
2019-01-25T00:10:36.308Z,28.93
2019-01-25T00:13:04.653Z,30.60
2019-01-25T00:15:32.727Z,29.70
2019-01-25T00:18:00.849Z,30.40
2019-01-25T00:20:28.888Z,30.23
2019-01-25T00:22:57.096Z,29.87
2019-01-25T00:25:25.182Z,31.50
2019-01-25T00:27:53.448Z,30.63
2019-01-25T00:30:21.662Z,32.10
2019-01-25T00:32:49.728Z,31.33
2019-01-25T00:35:17.820Z,30.47
2019-01-25T00:37:45.976Z,29.73
2019-01-25T00:40:16.288Z,30.70
2019-01-25T00:42:44.555Z,30.70
2019-01-25T00:45:13.754Z,31.53
2019-01-25T00:47:42.103Z,30.40
2019-01-25T00:50:16.003Z,29.27
2019-01-25T00:52:44.363Z,29.23
2019-01-25T00:55:12.700Z,28.20
2019-01-25T00:57:40.964Z,29.07
2019-01-25T01:00:16.773Z,29.13
2019-01-25T01:02:45.039Z,29.23
2019-01-25T01:05:14.513Z,27.47
2019-01-25T01:07:42.655Z,29.33
2019-01-25T01:10:14.149Z,28.73
2019-01-25T01:12:41.504Z,30.07
2019-01-25T01:15:10.856Z,30.07
2019-01-25T01:17:39.088Z,29.53
2019-01-25T01:20:11.307Z,29.40
2019-01-25T01:22:40.022Z,29.37
2019-01-25T01:25:09.510Z,29.50
2019-01-25T01:27:37.858Z,30.47
2019-01-25T01:30:08.836Z,28.87
2019-01-25T01:32:36.824Z,30.60
2019-01-25T01:35:06.124Z,28.73
2019-01-25T01:37:34.337Z,29.07
2019-01-25T01:40:05.562Z,28.83
2019-01-25T01:42:33.659Z,29.27
2019-01-25T01:45:01.734Z,28.97
2019-01-25T01:47:29.973Z,29.80
2019-01-25T01:49:58.001Z,28.27
2019-01-25T01:52:26.040Z,29.73
2019-01-25T01:54:54.163Z,30.80
2019-01-25T01:57:22.306Z,30.77
2019-01-25T01:59:50.362Z,29.83
2019-01-25T02:02:18.567Z,30.13
2019-01-25T02:04:46.783Z,29.50
2019-01-25T02:07:14.904Z,30.10
2019-01-25T02:09:43.247Z,30.07
2019-01-25T02:12:11.547Z,31.13
2019-01-25T02:14:39.749Z,31.20
2019-01-25T02:17:07.870Z,30.13
2019-01-25T02:19:35.988Z,30.03
2019-01-25T02:22:04.160Z,31.20
2019-01-25T02:24:32.358Z,31.27
2019-01-25T02:27:00.481Z,30.73
2019-01-25T02:29:28.782Z,30.97
2019-01-25T02:31:56.935Z,29.63
2019-01-25T02:34:25.086Z,28.80
2019-01-25T02:36:53.197Z,29.77
2019-01-25T02:39:21.400Z,30.30
2019-01-25T02:41:49.819Z,31.23
2019-01-25T02:44:17.969Z,31.67
2019-01-25T02:46:46.072Z,31.27
2019-01-25T02:49:14.125Z,30.23
2019-01-25T02:51:42.356Z,31.13
2019-01-25T02:54:10.486Z,28.83
2019-01-25T02:56:38.692Z,30.17
2019-01-25T02:59:06.723Z,29.60
2019-01-25T03:01:34.790Z,31.07
2019-01-25T03:04:03.982Z,29.47
2019-01-25T03:06:32.160Z,29.70
2019-01-25T03:09:00.480Z,30.53
2019-01-25T03:11:28.771Z,30.13
2019-01-25T03:13:57.264Z,30.33
2019-01-25T03:16:25.573Z,30.10
2019-01-25T03:18:54.213Z,29.47
2019-01-25T03:21:22.294Z,31.10
2019-01-25T03:23:50.376Z,28.00
2019-01-25T03:26:18.589Z,29.50
2019-01-25T03:28:46.660Z,29.47
2019-01-25T03:31:14.841Z,30.23
2019-01-25T03:33:42.931Z,31.07
2019-01-25T03:36:11.089Z,30.17
2019-01-25T03:38:39.399Z,30.77
2019-01-25T03:41:07.493Z,29.43
2019-01-25T03:43:35.646Z,31.70
2019-01-25T03:46:04.646Z,31.87
2019-01-25T03:48:33.118Z,29.33
2019-01-25T03:51:01.153Z,31.00
2019-01-25T03:53:29.312Z,30.43
2019-01-25T03:55:57.462Z,29.67
2019-01-25T03:58:25.522Z,29.13
2019-01-25T04:00:53.649Z,30.40
2019-01-25T04:03:21.813Z,30.50
2019-01-25T04:05:50.412Z,31.67
2019-01-25T04:08:18.571Z,29.70
2019-01-25T04:10:46.775Z,30.40
2019-01-25T04:13:15.001Z,30.67
2019-01-25T04:15:43.142Z,30.90
2019-01-25T04:18:11.190Z,29.63
2019-01-25T04:20:39.248Z,31.07
2019-01-25T04:23:07.506Z,30.23
2019-01-25T04:25:35.583Z,30.83
2019-01-25T04:28:05.673Z,29.90
2019-01-25T04:30:33.861Z,31.30
2019-01-25T04:33:01.909Z,30.93
2019-01-25T04:35:29.943Z,32.33
2019-01-25T04:37:58.101Z,33.03
2019-01-25T04:40:26.353Z,38.27
2019-01-25T04:42:54.500Z,32.87
2019-01-25T04:45:22.661Z,31.10
2019-01-25T04:47:51.484Z,32.57
2019-01-25T04:50:22.234Z,33.77
2019-01-25T04:52:50.904Z,33.50
2019-01-25T04:55:28.576Z,33.30
2019-01-25T04:58:15.885Z,31.53
2019-01-25T05:00:44.141Z,30.90
2019-01-25T05:03:12.884Z,31.50
2019-01-25T05:05:41.190Z,31.63
2019-01-25T05:08:16.052Z,29.50
2019-01-25T05:10:44.638Z,30.23
2019-01-25T05:13:12.662Z,31.27
2019-01-25T05:15:40.915Z,31.73
2019-01-25T05:18:09.579Z,32.07
2019-01-25T05:20:37.618Z,30.93
2019-01-25T05:23:07.399Z,27.17
2019-01-25T05:25:35.580Z,28.23
2019-01-25T05:28:18.661Z,29.40
2019-01-25T05:31:06.928Z,27.00
2019-01-25T05:33:35.441Z,26.10
2019-01-25T05:36:05.252Z,26.97
2019-01-25T05:38:33.304Z,26.37
2019-01-25T05:41:01.561Z,28.60
2019-01-25T05:43:38.868Z,27.53
2019-01-25T05:46:07.014Z,27.87
2019-01-25T05:48:35.127Z,28.53
2019-01-25T05:51:05.464Z,31.13
2019-01-25T05:53:33.515Z,30.67
2019-01-25T05:56:01.645Z,32.10
2019-01-25T05:58:29.692Z,31.27
2019-01-25T06:00:57.790Z,31.97
2019-01-25T06:03:25.917Z,31.37
2019-01-25T06:06:01.268Z,31.70
2019-01-25T06:08:33.338Z,33.53
2019-01-25T06:11:09.822Z,30.83
2019-01-25T06:13:40.064Z,32.97
2019-01-25T06:16:08.344Z,30.10
2019-01-25T06:18:36.486Z,31.00
2019-01-25T06:21:05.753Z,30.80
2019-01-25T06:23:33.785Z,31.03
2019-01-25T06:26:02.401Z,31.83
2019-01-25T06:28:30.435Z,31.93
2019-01-25T06:30:58.547Z,30.77
2019-01-25T06:33:26.937Z,32.57
2019-01-25T06:35:55.029Z,31.20
2019-01-25T06:38:23.082Z,32.53
2019-01-25T06:40:51.116Z,32.10
2019-01-25T06:43:19.694Z,33.87
2019-01-25T06:45:47.818Z,32.50
2019-01-25T06:48:16.514Z,31.30
2019-01-25T06:50:44.594Z,32.77
2019-01-25T06:53:12.622Z,32.43
2019-01-25T06:55:40.817Z,32.00
2019-01-25T06:58:43.340Z,33.03
2019-01-25T07:01:27.954Z,32.67
2019-01-25T07:03:55.972Z,30.97
2019-01-25T07:06:24.008Z,29.73
2019-01-25T07:08:52.074Z,30.40
2019-01-25T07:11:20.279Z,32.63
2019-01-25T07:13:48.385Z,27.53
2019-01-25T07:16:16.504Z,27.33
2019-01-25T07:18:44.590Z,28.83
2019-01-25T07:21:12.687Z,27.63
2019-01-25T07:23:40.815Z,27.40
2019-01-25T07:26:08.968Z,28.57
2019-01-25T07:28:37.112Z,26.97
2019-01-25T07:31:05.350Z,27.07
2019-01-25T07:33:33.407Z,29.07
2019-01-25T07:36:01.781Z,28.20
2019-01-25T07:38:30.197Z,28.50
2019-01-25T07:40:58.324Z,26.67
2019-01-25T07:43:26.401Z,26.37
2019-01-25T07:45:54.499Z,27.57
2019-01-25T07:48:22.553Z,25.63
2019-01-25T07:50:50.764Z,25.47
2019-01-25T07:53:18.950Z,25.73
2019-01-25T07:55:47.765Z,26.63
2019-01-25T07:58:15.888Z,24.57
2019-01-25T08:00:44.190Z,27.13
2019-01-25T08:03:12.325Z,26.00
2019-01-25T08:05:41.131Z,26.77
2019-01-25T08:08:09.307Z,27.47
2019-01-25T08:10:37.511Z,26.07
2019-01-25T08:13:05.629Z,26.60
2019-01-25T08:15:33.902Z,26.13
2019-01-25T08:18:02.104Z,25.90
2019-01-25T08:20:30.150Z,25.67
2019-01-25T08:22:58.303Z,26.10
2019-01-25T08:25:26.455Z,26.00
2019-01-25T08:27:54.512Z,26.53
2019-01-25T08:30:22.760Z,25.63
2019-01-25T08:32:50.999Z,26.80
2019-01-25T08:35:20.069Z,26.07
2019-01-25T08:37:48.237Z,25.73
2019-01-25T08:40:16.596Z,26.27
2019-01-25T08:42:45.314Z,24.87
2019-01-25T08:45:14.133Z,23.70
2019-01-25T08:47:43.547Z,23.40
2019-01-25T08:50:15.761Z,25.20
2019-01-25T08:52:43.877Z,23.00
2019-01-25T08:55:12.927Z,24.70
2019-01-25T08:57:41.318Z,24.97
2019-01-25T09:00:16.766Z,23.30
2019-01-25T09:02:45.186Z,23.90
2019-01-25T09:05:13.521Z,22.87
2019-01-25T09:07:41.763Z,23.47
2019-01-25T09:10:13.558Z,24.10
2019-01-25T09:12:41.727Z,23.37
2019-01-25T09:15:15.302Z,23.43
2019-01-25T09:17:43.596Z,24.23
2019-01-25T09:20:15.610Z,23.43
2019-01-25T09:22:43.735Z,23.83
2019-01-25T09:25:11.961Z,22.60
2019-01-25T09:27:40.166Z,23.63
2019-01-25T09:30:12.584Z,24.40
2019-01-25T09:32:40.626Z,23.20
2019-01-25T09:35:09.083Z,22.87
2019-01-25T09:37:37.309Z,24.03
2019-01-25T09:40:08.986Z,23.00
2019-01-25T09:42:37.047Z,24.10
2019-01-25T09:45:06.836Z,23.17
2019-01-25T09:47:34.950Z,24.00
2019-01-25T09:50:04.890Z,24.90
2019-01-25T09:52:32.950Z,23.57
2019-01-25T09:55:01.238Z,24.07
2019-01-25T09:57:29.278Z,23.77
2019-01-25T09:59:57.435Z,23.50
2019-01-25T10:02:25.450Z,23.30
2019-01-25T10:04:54.069Z,22.73
2019-01-25T10:07:22.266Z,22.33
2019-01-25T10:09:50.287Z,22.30
2019-01-25T10:12:18.377Z,23.40
2019-01-25T10:14:46.424Z,23.97
2019-01-25T10:17:14.555Z,22.27
2019-01-25T10:19:42.693Z,23.20
2019-01-25T10:22:10.782Z,24.50
2019-01-25T10:24:38.954Z,23.23
2019-01-25T10:27:07.046Z,22.57
2019-01-25T10:29:35.043Z,23.00
2019-01-25T10:32:03.788Z,21.67
2019-01-25T10:34:31.790Z,22.77
2019-01-25T10:36:59.868Z,23.23
2019-01-25T10:39:27.995Z,23.07
2019-01-25T10:41:56.211Z,22.17
2019-01-25T10:44:24.451Z,22.47
2019-01-25T10:46:52.567Z,23.17
2019-01-25T10:49:20.625Z,23.10
2019-01-25T10:51:48.725Z,23.63
2019-01-25T10:54:16.748Z,23.07
2019-01-25T10:56:45.086Z,24.23
2019-01-25T10:59:13.112Z,23.17
2019-01-25T11:01:41.196Z,24.23
2019-01-25T11:04:11.481Z,25.63
2019-01-25T11:06:39.391Z,26.90
2019-01-25T11:09:08.931Z,26.80
2019-01-25T11:11:37.067Z,28.90
2019-01-25T11:14:05.122Z,28.97
2019-01-25T11:16:33.179Z,26.93
2019-01-25T11:19:02.518Z,28.57
2019-01-25T11:21:30.693Z,27.77
2019-01-25T11:23:58.794Z,28.97
2019-01-25T11:26:26.949Z,28.37
2019-01-25T11:28:55.235Z,28.23
2019-01-25T11:31:23.489Z,28.03
2019-01-25T11:33:51.727Z,29.57
2019-01-25T11:36:19.944Z,27.37
2019-01-25T11:38:48.054Z,27.00
2019-01-25T11:41:16.154Z,27.67
2019-01-25T11:43:44.460Z,27.30
2019-01-25T11:46:13.503Z,31.48
2019-01-25T11:48:41.514Z,32.95
2019-01-25T11:51:09.559Z,28.83
2019-01-25T11:53:37.776Z,28.63
2019-01-25T11:56:06.049Z,28.63
2019-01-25T11:58:34.232Z,28.40
2019-01-25T12:01:02.552Z,28.67
2019-01-25T12:03:30.662Z,30.30
2019-01-25T12:05:58.783Z,28.77
2019-01-25T12:08:26.906Z,29.03
2019-01-25T12:10:55.029Z,27.60
2019-01-25T12:13:23.936Z,28.50
2019-01-25T12:15:51.960Z,28.87
2019-01-25T12:18:20.445Z,28.27
2019-01-25T12:20:48.741Z,30.10
2019-01-25T12:23:16.884Z,29.43
2019-01-25T12:25:45.188Z,29.80
2019-01-25T12:28:13.336Z,29.60
2019-01-25T12:30:41.662Z,29.43
2019-01-25T12:33:10.114Z,29.57
2019-01-25T12:35:43.708Z,30.23
2019-01-25T12:38:12.159Z,31.33
2019-01-25T12:40:42.160Z,32.60
2019-01-25T12:43:10.255Z,32.87
2019-01-25T12:45:38.363Z,32.53
2019-01-25T12:48:06.818Z,33.37
2019-01-25T12:50:49.222Z,31.27
2019-01-25T12:53:20.576Z,32.67
2019-01-25T12:55:48.775Z,32.50
2019-01-25T12:58:17.258Z,34.67
2019-01-25T13:00:45.635Z,36.83
2019-01-25T13:03:13.675Z,38.23
2019-01-25T13:05:43.299Z,37.67
2019-01-25T13:08:11.718Z,40.13
2019-01-25T13:10:39.933Z,39.10
2019-01-25T13:13:08.087Z,39.57
2019-01-25T13:15:38.176Z,38.20
2019-01-25T13:18:06.945Z,42.00
2019-01-25T13:20:39.581Z,39.80
2019-01-25T13:23:05.918Z,39.27
2019-01-25T13:25:34.327Z,39.57
2019-01-25T13:28:02.425Z,39.23
2019-01-25T13:30:30.748Z,36.90
2019-01-25T13:32:59.311Z,38.13
2019-01-25T13:35:27.562Z,38.10
2019-01-25T13:37:56.076Z,38.63
2019-01-25T13:40:24.731Z,38.07
2019-01-25T13:42:53.388Z,41.50
2019-01-25T13:45:22.924Z,38.80
2019-01-25T13:47:52.810Z,39.97
2019-01-25T13:50:24.337Z,40.70
2019-01-25T13:52:52.496Z,40.63
2019-01-25T13:55:20.700Z,40.60
2019-01-25T13:57:48.732Z,42.67
2019-01-25T14:00:22.939Z,40.57
2019-01-25T14:02:52.716Z,39.60
2019-01-25T14:05:21.076Z,41.07
2019-01-25T14:07:49.134Z,40.60
2019-01-25T14:10:21.749Z,34.50
2019-01-25T14:12:50.282Z,39.63
2019-01-25T14:15:18.318Z,40.33
2019-01-25T14:17:46.408Z,38.27
2019-01-25T14:20:23.212Z,37.13
2019-01-25T14:22:48.012Z,39.13
2019-01-25T14:25:16.658Z,42.37
2019-01-25T14:27:44.675Z,42.67
2019-01-25T14:30:23.565Z,42.90
2019-01-25T14:32:52.623Z,44.60
2019-01-25T14:35:20.672Z,43.87
2019-01-25T14:37:48.963Z,43.77
2019-01-25T14:40:17.239Z,45.47
2019-01-25T14:42:45.248Z,45.50
2019-01-25T14:45:13.746Z,44.63
2019-01-25T14:47:41.787Z,47.77
2019-01-25T14:50:14.738Z,46.70
2019-01-25T14:52:43.485Z,44.83
2019-01-25T14:55:12.044Z,47.30
2019-01-25T14:57:40.096Z,46.17
2019-01-25T15:00:08.778Z,46.70
2019-01-25T15:02:37.330Z,46.07
2019-01-25T15:05:08.906Z,47.10
2019-01-25T15:07:36.958Z,47.13
2019-01-25T15:10:09.875Z,48.00
2019-01-25T15:12:38.289Z,46.70
2019-01-25T15:15:09.638Z,46.57
2019-01-25T15:17:37.904Z,47.93
2019-01-25T15:20:09.913Z,47.90
2019-01-25T15:22:37.930Z,48.03
2019-01-25T15:25:06.440Z,47.90
2019-01-25T15:27:34.662Z,48.20
2019-01-25T15:30:06.896Z,45.97
2019-01-25T15:32:34.966Z,47.87
2019-01-25T15:35:04.176Z,49.13
2019-01-25T15:37:32.366Z,46.43
2019-01-25T15:40:00.515Z,46.43
2019-01-25T15:42:28.567Z,47.17
2019-01-25T15:44:56.639Z,48.80
2019-01-25T15:47:24.721Z,47.80
2019-01-25T15:49:52.861Z,43.17
2019-01-25T15:52:20.931Z,43.77
2019-01-25T15:54:49.126Z,38.27
2019-01-25T15:57:17.250Z,42.47
2019-01-25T15:59:45.586Z,42.37
2019-01-25T16:02:13.714Z,41.03
2019-01-25T16:04:41.926Z,38.33
2019-01-25T16:07:10.100Z,39.37
2019-01-25T16:09:38.087Z,41.33
2019-01-25T16:12:06.155Z,39.47
2019-01-25T16:14:35.231Z,39.07
2019-01-25T16:17:05.796Z,38.97
2019-01-25T16:19:35.036Z,37.60
2019-01-25T16:22:05.187Z,37.93
2019-01-25T16:24:33.212Z,36.80
2019-01-25T16:27:01.477Z,38.27
2019-01-25T16:29:29.540Z,38.50
2019-01-25T16:31:57.597Z,37.00
2019-01-25T16:34:25.689Z,39.07
2019-01-25T16:36:53.727Z,41.17
2019-01-25T16:39:21.803Z,40.07
2019-01-25T16:41:49.931Z,41.13
2019-01-25T16:44:25.374Z,41.03
2019-01-25T16:46:47.985Z,40.93
2019-01-25T16:49:16.265Z,39.40
2019-01-25T16:51:44.349Z,38.73
2019-01-25T16:54:12.443Z,40.83
2019-01-25T16:56:40.498Z,39.47
2019-01-25T16:59:08.677Z,40.03
2019-01-25T17:01:36.775Z,39.20
2019-01-25T17:04:04.841Z,40.13
2019-01-25T17:06:33.101Z,39.77
2019-01-25T17:09:01.391Z,39.97
2019-01-25T17:11:29.890Z,39.33
2019-01-25T17:13:58.149Z,40.00
2019-01-25T17:16:26.399Z,38.87
2019-01-25T17:18:54.437Z,38.70
2019-01-25T17:21:22.483Z,39.53
2019-01-25T17:23:50.595Z,39.53
2019-01-25T17:26:18.916Z,37.67
2019-01-25T17:28:47.099Z,39.53
2019-01-25T17:31:15.270Z,37.80
2019-01-25T17:33:43.423Z,40.47
2019-01-25T17:36:11.549Z,39.13
2019-01-25T17:38:39.645Z,39.47
2019-01-25T17:41:07.767Z,39.63
2019-01-25T17:43:35.924Z,38.90
2019-01-25T17:46:04.419Z,39.73
2019-01-25T17:48:32.551Z,39.13
2019-01-25T17:51:00.627Z,37.27
2019-01-25T17:53:28.731Z,38.53
2019-01-25T17:55:56.970Z,39.50
2019-01-25T17:58:25.475Z,39.90
2019-01-25T18:00:56.781Z,38.50
2019-01-25T18:03:25.209Z,39.00
2019-01-25T18:05:54.230Z,38.50
2019-01-25T18:08:22.416Z,40.53
2019-01-25T18:10:50.687Z,37.73
2019-01-25T18:13:18.823Z,39.73
2019-01-25T18:15:46.917Z,39.93
2019-01-25T18:18:15.116Z,38.37
2019-01-25T18:20:43.357Z,38.37
2019-01-25T18:23:12.548Z,38.03
2019-01-25T18:26:15.578Z,39.70
2019-01-25T18:29:17.788Z,40.07
2019-01-25T18:31:45.856Z,36.50
2019-01-25T18:34:14.550Z,38.77
2019-01-25T18:36:42.726Z,39.93
2019-01-25T18:39:10.862Z,38.37
2019-01-25T18:41:38.873Z,38.07
2019-01-25T18:44:07.215Z,37.37
2019-01-25T18:46:35.208Z,35.77
2019-01-25T18:49:03.855Z,37.43
2019-01-25T18:51:31.935Z,37.17
2019-01-25T18:53:59.964Z,36.73
2019-01-25T18:56:28.059Z,39.13
2019-01-25T18:58:56.086Z,36.97
2019-01-25T19:01:24.243Z,39.93
2019-01-25T19:03:52.271Z,38.00
2019-01-25T19:06:20.346Z,37.13
2019-01-25T19:08:48.411Z,37.77
2019-01-25T19:11:16.633Z,39.50
2019-01-25T19:13:44.745Z,38.57
2019-01-25T19:16:12.882Z,35.77
2019-01-25T19:18:41.067Z,40.63
2019-01-25T19:21:09.191Z,37.97
2019-01-25T19:23:38.165Z,37.90
2019-01-25T19:26:06.353Z,37.90
2019-01-25T19:28:34.456Z,37.93
2019-01-25T19:31:02.442Z,36.80
2019-01-25T19:33:31.942Z,37.13
2019-01-25T19:36:00.000Z,37.77
2019-01-25T19:38:30.533Z,38.07
2019-01-25T19:40:58.647Z,36.73
2019-01-25T19:43:26.895Z,38.87
2019-01-25T19:45:54.955Z,36.33
2019-01-25T19:48:23.024Z,36.10
2019-01-25T19:50:51.091Z,37.07
2019-01-25T19:53:19.261Z,38.97
2019-01-25T19:55:47.375Z,35.97
2019-01-25T19:58:17.638Z,40.00
2019-01-25T20:00:46.110Z,39.40
2019-01-25T20:03:14.584Z,38.80
2019-01-25T20:05:42.737Z,38.43
2019-01-25T20:08:12.212Z,38.77
2019-01-25T20:10:40.215Z,39.73
2019-01-25T20:13:10.474Z,40.57
2019-01-25T20:15:38.660Z,40.40
2019-01-25T20:18:06.788Z,41.17
2019-01-25T20:20:35.746Z,38.30
2019-01-25T20:23:04.289Z,36.67
2019-01-25T20:25:33.766Z,42.10
2019-01-25T20:28:02.094Z,41.07
2019-01-25T20:30:31.820Z,42.77
2019-01-25T20:33:02.131Z,43.57
2019-01-25T20:35:40.681Z,43.13
2019-01-25T20:38:09.228Z,40.57
2019-01-25T20:40:37.893Z,43.63
2019-01-25T20:43:05.943Z,39.60
2019-01-25T20:45:36.790Z,44.90
2019-01-25T20:48:06.720Z,44.33
2019-01-25T20:50:36.186Z,46.03
2019-01-25T20:53:06.258Z,44.50
2019-01-25T20:55:34.349Z,44.97
2019-01-25T20:58:02.465Z,43.90
2019-01-25T21:00:33.677Z,46.87
2019-01-25T21:03:02.857Z,46.73
2019-01-25T21:05:31.783Z,46.77
2019-01-25T21:07:59.863Z,47.93
2019-01-25T21:10:28.194Z,52.30
2019-01-25T21:12:56.425Z,65.97
2019-01-25T21:15:25.858Z,56.03
2019-01-25T21:17:54.595Z,49.60
2019-01-25T21:20:30.495Z,47.07
2019-01-25T21:22:59.000Z,48.77
2019-01-25T21:25:27.109Z,48.97
2019-01-25T21:27:55.417Z,50.67
2019-01-25T21:30:27.307Z,49.77
2019-01-25T21:32:55.634Z,49.37
2019-01-25T21:35:23.733Z,51.60
2019-01-25T21:37:51.970Z,49.33
2019-01-25T21:40:23.884Z,51.87
2019-01-25T21:42:51.997Z,51.10
2019-01-25T21:45:22.498Z,49.93
2019-01-25T21:47:50.611Z,48.63
2019-01-25T21:50:22.118Z,51.97
2019-01-25T21:52:50.473Z,50.80
2019-01-25T21:55:18.747Z,53.40
2019-01-25T21:57:46.933Z,55.88
2019-01-25T22:00:20.121Z,53.70
2019-01-25T22:02:48.343Z,52.53
2019-01-25T22:05:17.261Z,50.80
2019-01-25T22:07:45.446Z,53.20
2019-01-25T22:10:17.945Z,51.97
2019-01-25T22:12:46.148Z,50.97
2019-01-25T22:15:15.940Z,51.23
2019-01-25T22:17:44.206Z,49.07
2019-01-25T22:20:25.558Z,52.13
2019-01-25T22:22:53.967Z,52.27
2019-01-25T22:25:24.331Z,50.30
2019-01-25T22:27:55.388Z,52.27
2019-01-25T22:30:24.876Z,48.67
2019-01-25T22:32:53.138Z,48.33
2019-01-25T22:35:24.059Z,50.73
2019-01-25T22:37:53.907Z,49.83
2019-01-25T22:40:27.680Z,48.43
2019-01-25T22:42:56.473Z,47.70
2019-01-25T22:45:27.287Z,47.67
2019-01-25T22:47:57.140Z,50.07
2019-01-25T22:50:28.363Z,49.00
2019-01-25T22:52:56.518Z,50.50
2019-01-25T22:55:26.150Z,48.50
2019-01-25T22:57:54.286Z,47.77
2019-01-25T23:01:00.873Z,50.13
2019-01-25T23:03:55.063Z,47.60
2019-01-25T23:06:44.141Z,47.17
2019-01-25T23:09:46.931Z,45.50
2019-01-25T23:12:14.953Z,48.10
2019-01-25T23:14:43.103Z,46.33
2019-01-25T23:17:11.655Z,46.90
2019-01-25T23:19:40.160Z,47.43
2019-01-25T23:22:08.243Z,46.50
2019-01-25T23:24:36.295Z,46.40
2019-01-25T23:27:04.520Z,48.27
2019-01-25T23:29:33.707Z,45.20
2019-01-25T23:32:01.741Z,42.53
2019-01-25T23:34:30.996Z,42.67
2019-01-25T23:36:59.382Z,42.10
2019-01-25T23:39:27.474Z,42.77
2019-01-25T23:41:55.712Z,41.80
2019-01-25T23:44:24.090Z,40.77
2019-01-25T23:46:52.303Z,39.73
2019-01-25T23:49:20.327Z,41.83
2019-01-25T23:51:48.335Z,43.33
2019-01-25T23:54:16.420Z,42.47
2019-01-25T23:56:44.443Z,40.87
2019-01-25T23:59:12.904Z,39.20
